Time,TemperatureF,DewpointF,PressureIn,WindDirection,WindDirectionDegrees,WindSpeedMPH,WindSpeedGustMPH,Humidity,HourlyPrecipIn,Conditions,Clouds,dailyrainin,SolarRadiationWatts/m^2,SoftwareType,DateUTC
2013-07-10 00:11:00,88.0,69.0,-100.00,South,170,9.0,20.0,53,0.00,,,0.00,0.000000,,2013-07-10 07:11:00,
2013-07-10 00:22:00,88.0,69.0,-100.00,South,170,9.0,20.0,53,0.00,,,0.00,0.000000,,2013-07-10 07:22:00,
2013-07-10 00:32:00,88.0,69.0,-100.00,South,170,9.0,20.0,53,0.00,,,0.00,0.000000,,2013-07-10 07:32:00,
2013-07-10 00:43:00,88.0,69.0,-100.00,South,170,9.0,20.0,53,0.00,,,0.00,0.000000,,2013-07-10 07:43:00,
2013-07-10 01:11:00,87.0,68.0,-100.00,SSE,159,13.0,19.0,53,0.00,,,0.00,0.000000,,2013-07-10 08:11:00,
2013-07-10 01:22:00,87.0,68.0,-100.00,SSE,159,13.0,19.0,53,0.00,,,0.00,0.000000,,2013-07-10 08:22:00,
2013-07-10 01:32:00,87.0,68.0,-100.00,SSE,159,13.0,19.0,53,0.00,,,0.00,0.000000,,2013-07-10 08:32:00,
2013-07-10 01:42:00,87.0,68.0,-100.00,SSE,159,13.0,19.0,53,0.00,,,0.00,0.000000,,2013-07-10 08:42:00,
2013-07-10 02:12:00,86.0,68.0,-100.00,SSE,160,10.0,18.0,56,0.00,,,0.00,0.000000,,2013-07-10 09:12:00,
2013-07-10 02:22:00,86.0,68.0,-100.00,SSE,160,10.0,18.0,56,0.00,,,0.00,0.000000,,2013-07-10 09:22:00,
2013-07-10 02:32:00,86.0,68.0,-100.00,SSE,160,10.0,18.0,56,0.00,,,0.00,0.000000,,2013-07-10 09:32:00,
2013-07-10 02:42:00,86.0,68.0,-100.00,SSE,160,10.0,18.0,56,0.00,,,0.00,0.000000,,2013-07-10 09:42:00,
2013-07-10 02:48:00,-999.0,-99.9,-100.00,SSE,162,14.0,23.0,-999,-99.99,,,-99.99,0.000000,,2013-07-10 09:48:00,
2013-07-10 03:13:00,86.0,69.0,-100.00,SSE,162,14.0,23.0,58,0.00,,,0.00,0.000000,,2013-07-10 10:13:00,
2013-07-10 03:23:00,86.0,69.0,-100.00,SSE,162,14.0,23.0,58,0.00,,,0.00,0.000000,,2013-07-10 10:23:00,
2013-07-10 03:32:00,86.0,69.0,-100.00,SSE,162,14.0,23.0,58,0.00,,,0.00,0.000000,,2013-07-10 10:32:00,
2013-07-10 04:11:00,85.0,71.0,-100.00,SSE,165,15.0,27.0,64,0.00,,,0.00,0.000000,,2013-07-10 11:11:00,
2013-07-10 04:22:00,85.0,71.0,-100.00,SSE,165,15.0,27.0,64,0.00,,,0.00,0.000000,,2013-07-10 11:22:00,
2013-07-10 04:33:00,85.0,71.0,-100.00,SSE,165,15.0,27.0,64,0.00,,,0.00,0.000000,,2013-07-10 11:33:00,
2013-07-10 04:43:00,85.0,71.0,-100.00,SSE,165,15.0,27.0,64,0.00,,,0.00,0.000000,,2013-07-10 11:43:00,
2013-07-10 07:11:00,83.0,70.0,-100.00,SSE,157,9.0,15.0,64,-99.99,,,0.00,33.000000,,2013-07-10 14:11:00,
2013-07-10 07:22:00,83.0,70.0,-100.00,SSE,157,9.0,15.0,64,-99.99,,,0.00,33.000000,,2013-07-10 14:22:00,
2013-07-10 07:33:00,83.0,70.0,-100.00,SSE,157,9.0,15.0,64,-99.99,,,0.00,33.000000,,2013-07-10 14:33:00,
2013-07-10 07:43:00,83.0,70.0,-100.00,SSE,157,9.0,15.0,64,-99.99,,,0.00,33.000000,,2013-07-10 14:43:00,
2013-07-10 08:11:00,85.0,71.0,-100.00,SSE,158,6.0,11.0,63,0.00,,,0.00,145.000000,,2013-07-10 15:11:00,
2013-07-10 08:22:00,85.0,71.0,-100.00,SSE,158,6.0,11.0,63,0.00,,,0.00,145.000000,,2013-07-10 15:22:00,
2013-07-10 08:34:00,85.0,71.0,-100.00,SSE,158,6.0,11.0,63,0.00,,,0.00,145.000000,,2013-07-10 15:34:00,
2013-07-10 08:42:00,85.0,71.0,-100.00,SSE,158,6.0,11.0,63,0.00,,,0.00,145.000000,,2013-07-10 15:42:00,
2013-07-10 09:11:00,87.0,70.0,-100.00,SSE,148,6.0,10.0,57,0.00,,,0.00,246.000000,,2013-07-10 16:11:00,
2013-07-10 09:22:00,87.0,70.0,-100.00,SSE,148,6.0,10.0,57,0.00,,,0.00,246.000000,,2013-07-10 16:22:00,
2013-07-10 09:33:00,87.0,70.0,-100.00,SSE,148,6.0,10.0,57,0.00,,,0.00,246.000000,,2013-07-10 16:33:00,
2013-07-10 09:44:00,87.0,70.0,-100.00,SSE,148,6.0,10.0,57,0.00,,,0.00,246.000000,,2013-07-10 16:44:00,
2013-07-10 10:11:00,91.0,70.0,-100.00,SSE,151,9.0,13.0,50,0.00,,,0.00,660.000000,,2013-07-10 17:11:00,
2013-07-10 10:23:00,91.0,70.0,-100.00,SSE,151,9.0,13.0,50,0.00,,,0.00,660.000000,,2013-07-10 17:23:00,
2013-07-10 10:32:00,91.0,70.0,-100.00,SSE,151,9.0,13.0,50,0.00,,,0.00,660.000000,,2013-07-10 17:32:00,
2013-07-10 10:42:00,91.0,70.0,-100.00,SSE,151,9.0,13.0,50,0.00,,,0.00,660.000000,,2013-07-10 17:42:00,
2013-07-10 11:11:00,92.0,70.0,-100.00,SSE,152,10.0,15.0,49,0.00,,,0.00,751.000000,,2013-07-10 18:11:00,
2013-07-10 11:21:00,92.0,70.0,-100.00,SSE,152,10.0,15.0,49,0.00,,,0.00,751.000000,,2013-07-10 18:21:00,
2013-07-10 11:32:00,92.0,70.0,-100.00,SSE,152,10.0,15.0,49,0.00,,,0.00,751.000000,,2013-07-10 18:32:00,
2013-07-10 11:44:00,92.0,70.0,-100.00,SSE,152,10.0,15.0,49,0.00,,,0.00,751.000000,,2013-07-10 18:44:00,
2013-07-10 12:11:00,94.0,69.0,-100.00,SSE,156,11.0,19.0,44,0.00,,,0.00,896.000000,,2013-07-10 19:11:00,
2013-07-10 12:21:00,94.0,69.0,-100.00,SSE,156,11.0,19.0,44,0.00,,,0.00,896.000000,,2013-07-10 19:21:00,
2013-07-10 12:32:00,94.0,69.0,-100.00,SSE,156,11.0,19.0,44,0.00,,,0.00,896.000000,,2013-07-10 19:32:00,
2013-07-10 12:42:00,94.0,69.0,-100.00,SSE,156,11.0,19.0,44,0.00,,,0.00,896.000000,,2013-07-10 19:42:00,
2013-07-10 13:11:00,98.0,71.0,-100.00,SSE,158,11.0,18.0,42,0.00,,,0.00,992.000000,,2013-07-10 20:11:00,
2013-07-10 13:22:00,98.0,71.0,-100.00,SSE,158,11.0,18.0,42,0.00,,,0.00,992.000000,,2013-07-10 20:22:00,
2013-07-10 13:32:00,98.0,71.0,-100.00,SSE,158,11.0,18.0,42,0.00,,,0.00,992.000000,,2013-07-10 20:32:00,
2013-07-10 13:43:00,98.0,71.0,-100.00,SSE,158,11.0,18.0,42,0.00,,,0.00,992.000000,,2013-07-10 20:43:00,
2013-07-10 14:11:00,97.0,70.0,-100.00,SSE,153,13.0,18.0,42,0.00,,,0.00,981.000000,,2013-07-10 21:11:00,
2013-07-10 14:21:00,97.0,70.0,-100.00,SSE,153,13.0,18.0,42,0.00,,,0.00,981.000000,,2013-07-10 21:21:00,
2013-07-10 14:32:00,97.0,70.0,-100.00,SSE,153,13.0,18.0,42,0.00,,,0.00,981.000000,,2013-07-10 21:32:00,
2013-07-10 14:41:00,97.0,70.0,-100.00,SSE,153,13.0,18.0,42,0.00,,,0.00,981.000000,,2013-07-10 21:41:00,
2013-07-10 15:11:00,100.0,69.0,-100.00,South,172,8.0,18.0,37,0.00,,,0.00,882.000000,,2013-07-10 22:11:00,
2013-07-10 15:21:00,100.0,69.0,-100.00,South,172,8.0,18.0,37,0.00,,,0.00,882.000000,,2013-07-10 22:21:00,
2013-07-10 15:33:00,100.0,69.0,-100.00,South,172,8.0,18.0,37,0.00,,,0.00,882.000000,,2013-07-10 22:33:00,
2013-07-10 15:42:00,100.0,69.0,-100.00,South,172,8.0,18.0,37,0.00,,,0.00,882.000000,,2013-07-10 22:42:00,
2013-07-10 16:11:00,100.0,66.0,-100.00,SSW,202,10.0,19.0,33,0.00,,,0.00,756.000000,,2013-07-10 23:11:00,
2013-07-10 16:21:00,100.0,66.0,-100.00,SSW,202,10.0,19.0,33,0.00,,,0.00,756.000000,,2013-07-10 23:21:00,
2013-07-10 16:32:00,100.0,66.0,-100.00,SSW,202,10.0,19.0,33,0.00,,,0.00,756.000000,,2013-07-10 23:32:00,
2013-07-10 16:42:00,100.0,66.0,-100.00,SSW,202,10.0,19.0,33,0.00,,,0.00,756.000000,,2013-07-10 23:42:00,
2013-07-10 17:22:00,100.0,66.0,-100.00,SSW,198,10.0,17.0,33,0.00,,,0.00,628.000000,,2013-07-11 00:22:00,
2013-07-10 17:32:00,100.0,66.0,-100.00,SSW,198,10.0,17.0,33,0.00,,,0.00,628.000000,,2013-07-11 00:32:00,
2013-07-10 17:42:00,100.0,66.0,-100.00,SSW,198,10.0,17.0,33,0.00,,,0.00,628.000000,,2013-07-11 00:42:00,
2013-07-10 18:11:00,97.0,66.0,-100.00,South,191,8.0,20.0,37,0.00,,,0.00,355.000000,,2013-07-11 01:11:00,
2013-07-10 18:22:00,97.0,66.0,-100.00,South,191,8.0,20.0,37,0.00,,,0.00,355.000000,,2013-07-11 01:22:00,
2013-07-10 18:32:00,97.0,66.0,-100.00,South,191,8.0,20.0,37,0.00,,,0.00,355.000000,,2013-07-11 01:32:00,
2013-07-10 18:43:00,97.0,66.0,-100.00,South,191,8.0,20.0,37,0.00,,,0.00,355.000000,,2013-07-11 01:43:00,
2013-07-10 19:22:00,96.0,65.0,-100.00,SSW,194,8.0,13.0,37,0.00,,,0.00,133.000000,,2013-07-11 02:22:00,
2013-07-10 19:32:00,96.0,65.0,-100.00,SSW,194,8.0,13.0,37,0.00,,,0.00,133.000000,,2013-07-11 02:32:00,
2013-07-10 19:43:00,96.0,65.0,-100.00,SSW,194,8.0,13.0,37,0.00,,,0.00,133.000000,,2013-07-11 02:43:00,
2013-07-10 20:11:00,93.0,64.0,-100.00,SSW,198,7.0,13.0,38,0.00,,,0.00,28.000000,,2013-07-11 03:11:00,
2013-07-10 20:21:00,93.0,64.0,-100.00,SSW,198,7.0,13.0,38,0.00,,,0.00,28.000000,,2013-07-11 03:21:00,
2013-07-10 20:33:00,93.0,64.0,-100.00,SSW,198,7.0,13.0,38,0.00,,,0.00,28.000000,,2013-07-11 03:33:00,
2013-07-10 20:42:00,93.0,64.0,-100.00,SSW,198,7.0,13.0,38,0.00,,,0.00,28.000000,,2013-07-11 03:42:00,
2013-07-10 21:12:00,90.0,66.0,-100.00,South,175,6.0,11.0,45,0.00,,,0.00,1.000000,,2013-07-11 04:12:00,
2013-07-10 21:22:00,90.0,66.0,-100.00,South,175,6.0,11.0,45,0.00,,,0.00,1.000000,,2013-07-11 04:22:00,
2013-07-10 21:32:00,90.0,66.0,-100.00,South,175,6.0,11.0,45,0.00,,,0.00,1.000000,,2013-07-11 04:32:00,
2013-07-10 21:42:00,90.0,66.0,-100.00,South,175,6.0,11.0,45,0.00,,,0.00,1.000000,,2013-07-11 04:42:00,
2013-07-10 22:12:00,89.0,65.0,-100.00,SSE,158,9.0,12.0,45,0.00,,,0.00,0.000000,,2013-07-11 05:12:00,
2013-07-10 22:22:00,89.0,65.0,-100.00,SSE,158,9.0,12.0,45,0.00,,,0.00,0.000000,,2013-07-11 05:22:00,
2013-07-10 22:32:00,89.0,65.0,-100.00,SSE,158,9.0,12.0,45,0.00,,,0.00,0.000000,,2013-07-11 05:32:00,
2013-07-10 22:43:00,89.0,65.0,-100.00,SSE,158,9.0,12.0,45,0.00,,,0.00,0.000000,,2013-07-11 05:43:00,
2013-07-10 23:11:00,89.0,66.0,-100.00,SSE,167,10.0,16.0,47,0.00,,,0.00,0.000000,,2013-07-11 06:11:00,
2013-07-10 23:22:00,89.0,66.0,-100.00,SSE,167,10.0,16.0,47,0.00,,,0.00,0.000000,,2013-07-11 06:22:00,
2013-07-10 23:32:00,89.0,66.0,-100.00,SSE,167,10.0,16.0,47,0.00,,,0.00,0.000000,,2013-07-11 06:32:00,
2013-07-10 23:43:00,89.0,66.0,-100.00,SSE,167,10.0,16.0,47,0.00,,,0.00,0.000000,,2013-07-11 06:43:00,